createdAt,value
2022-10-05T00:00:51.176Z,101524.97
2022-10-05T00:03:25.301Z,101524.50
2022-10-05T00:05:57.585Z,101517.75
2022-10-05T00:08:33.937Z,101508.22
2022-10-05T00:11:07.210Z,101506.66
2022-10-05T00:13:42.536Z,101511.84
2022-10-05T00:16:17.744Z,101513.84
2022-10-05T00:18:51.381Z,101509.50
2022-10-05T00:21:25.305Z,101505.94
2022-10-05T00:23:57.931Z,101507.16
2022-10-05T00:26:32.883Z,101500.47
2022-10-05T00:29:26.998Z,101500.06
2022-10-05T00:32:00.370Z,101489.31
2022-10-05T00:34:33.839Z,101494.84
2022-10-05T00:37:06.458Z,101501.59
2022-10-05T00:39:39.284Z,101497.63
2022-10-05T00:42:22.273Z,101501.59
2022-10-05T00:44:58.188Z,101494.84
2022-10-05T00:48:02.218Z,101497.97
2022-10-05T00:50:49.872Z,101497.97
2022-10-05T00:53:34.839Z,101496.41
2022-10-05T00:56:25.718Z,101497.28
2022-10-05T00:58:58.176Z,101501.28
2022-10-05T01:01:50.801Z,101498.94
2022-10-05T01:04:37.185Z,101494.16
2022-10-05T01:07:32.380Z,101498.16
2022-10-05T01:10:23.552Z,101483.94
2022-10-05T01:13:08.978Z,101489.47
2022-10-05T01:15:49.612Z,101479.22
2022-10-05T01:18:38.648Z,101479.22
2022-10-05T01:21:17.464Z,101472.13
2022-10-05T01:24:07.156Z,101455.81
2022-10-05T01:26:54.469Z,101465.69
2022-10-05T01:29:36.036Z,101453.81
2022-10-05T01:32:08.420Z,101449.06
2022-10-05T01:34:49.859Z,101452.34
2022-10-05T01:37:28.309Z,101451.56
2022-10-05T01:40:18.890Z,101452.69
2022-10-05T01:43:00.012Z,101446.28
2022-10-05T01:45:37.150Z,101450.19
2022-10-05T01:48:18.250Z,101441.84
2022-10-05T01:51:17.448Z,101441.44
2022-10-05T01:53:59.032Z,101434.69
2022-10-05T01:56:31.504Z,101437.78
2022-10-05T01:59:26.807Z,101437.00
2022-10-05T02:02:01.782Z,101439.34
2022-10-05T02:05:00.995Z,101427.47
2022-10-05T02:07:32.586Z,101428.25
2022-10-05T02:10:08.979Z,101428.25
2022-10-05T02:12:42.827Z,101422.72
2022-10-05T02:15:18.600Z,101422.72
2022-10-05T02:17:54.615Z,101415.56
2022-10-05T02:20:29.784Z,101417.69
2022-10-05T02:23:04.854Z,101406.25
2022-10-05T02:25:39.298Z,101409.00
2022-10-05T02:28:18.257Z,101405.44
2022-10-05T02:31:00.932Z,101410.66
2022-10-05T02:33:33.792Z,101405.13
2022-10-05T02:36:15.889Z,101407.44
2022-10-05T02:39:14.674Z,101396.78
2022-10-05T02:41:53.010Z,101390.09
2022-10-05T02:44:44.229Z,101383.41
2022-10-05T02:47:16.497Z,101377.88
2022-10-05T02:49:53.998Z,101377.88
2022-10-05T02:52:29.168Z,101373.97
2022-10-05T02:55:01.475Z,101373.28
2022-10-05T02:57:47.650Z,101371.78
2022-10-05T03:00:21.297Z,101373.94
2022-10-05T03:03:13.818Z,101372.47
2022-10-05T03:06:00.517Z,101373.41
2022-10-05T03:08:35.798Z,101362.13
2022-10-05T03:11:14.947Z,101359.16
2022-10-05T03:13:50.673Z,101351.34
2022-10-05T03:16:26.127Z,101347.53
2022-10-05T03:19:04.787Z,101334.25
2022-10-05T03:21:43.233Z,101348.19
2022-10-05T03:24:15.782Z,101344.22
2022-10-05T03:27:03.414Z,101350.09
2022-10-05T03:29:42.312Z,101349.25
2022-10-05T03:32:33.500Z,101348.31
2022-10-05T03:35:05.774Z,101343.03
2022-10-05T03:37:49.682Z,101346.13
2022-10-05T03:40:29.464Z,101343.28
2022-10-05T03:43:24.830Z,101344.81
2022-10-05T03:46:21.549Z,101344.81
2022-10-05T03:49:03.406Z,101353.47
2022-10-05T03:51:39.280Z,101352.28
2022-10-05T03:54:23.694Z,101351.94
2022-10-05T03:57:00.602Z,101354.25
2022-10-05T03:59:37.839Z,101352.28
2022-10-05T04:02:18.276Z,101351.06
2022-10-05T04:04:53.422Z,101351.41
2022-10-05T04:07:43.567Z,101343.09
2022-10-05T04:10:29.564Z,101349.06
2022-10-05T04:13:07.399Z,101347.09
2022-10-05T04:16:14.536Z,101349.16
2022-10-05T04:19:09.447Z,101345.16
2022-10-05T04:21:51.597Z,101346.72
2022-10-05T04:24:26.774Z,101346.38
2022-10-05T04:27:01.393Z,101353.13
2022-10-05T04:29:43.857Z,101352.75
2022-10-05T04:32:16.154Z,101356.72
2022-10-05T04:34:48.442Z,101355.50
2022-10-05T04:37:31.010Z,101351.19
2022-10-05T04:40:26.175Z,101344.41
2022-10-05T04:43:07.248Z,101336.47
2022-10-05T04:45:45.807Z,101331.28
2022-10-05T04:48:30.625Z,101334.41
2022-10-05T04:51:09.350Z,101331.66
2022-10-05T04:54:00.273Z,101334.75
2022-10-05T04:56:38.538Z,101329.56
2022-10-05T04:59:17.500Z,101328.03
2022-10-05T05:02:01.026Z,101326.38
2022-10-05T05:04:42.134Z,101327.50
2022-10-05T05:07:26.780Z,101331.81
2022-10-05T05:10:12.514Z,101329.75
2022-10-05T05:12:55.247Z,101329.41
2022-10-05T05:15:40.406Z,101336.53
2022-10-05T05:18:31.798Z,101334.53
2022-10-05T05:21:31.178Z,101332.97
2022-10-05T05:24:09.265Z,101328.19
2022-10-05T05:27:07.836Z,101309.81
2022-10-05T05:29:54.854Z,101328.56
2022-10-05T05:32:27.123Z,101322.47
2022-10-05T05:35:05.601Z,101326.13
2022-10-05T05:37:56.456Z,101318.16
2022-10-05T05:40:33.447Z,101321.25
2022-10-05T05:43:24.190Z,101321.25
2022-10-05T05:46:00.643Z,101310.84
2022-10-05T05:48:38.103Z,101303.84
2022-10-05T05:51:36.636Z,101304.28
2022-10-05T05:54:15.285Z,101304.63
2022-10-05T05:57:13.892Z,101294.56
2022-10-05T06:00:08.087Z,101301.56
2022-10-05T06:02:43.521Z,101298.38
2022-10-05T06:05:24.339Z,101304.16
2022-10-05T06:07:57.866Z,101304.16
2022-10-05T06:10:41.983Z,101308.41
2022-10-05T06:13:37.619Z,101302.75
2022-10-05T06:16:12.936Z,101302.69
2022-10-05T06:18:48.168Z,101299.72
2022-10-05T06:21:32.299Z,101289.63
2022-10-05T06:24:21.200Z,101294.38
2022-10-05T06:27:05.330Z,101294.22
2022-10-05T06:29:43.471Z,101303.66
2022-10-05T06:32:38.498Z,101304.53
2022-10-05T06:35:17.798Z,101300.44
2022-10-05T06:37:51.260Z,101307.47
2022-10-05T06:40:43.880Z,101304.16
2022-10-05T06:43:23.268Z,101300.81
2022-10-05T06:46:18.285Z,101300.16
2022-10-05T06:48:51.026Z,101306.38
2022-10-05T06:51:43.875Z,101301.63
2022-10-05T06:54:37.382Z,101298.28
2022-10-05T06:57:15.659Z,101297.66
2022-10-05T07:00:01.952Z,101301.97
2022-10-05T07:02:46.443Z,101302.16
2022-10-05T07:05:34.013Z,101306.16
2022-10-05T07:08:29.778Z,101306.50
2022-10-05T07:11:29.458Z,101308.72
2022-10-05T07:14:19.794Z,101296.19
2022-10-05T07:17:03.055Z,101302.31
2022-10-05T07:19:45.643Z,101311.63
2022-10-05T07:22:17.916Z,101303.78
2022-10-05T07:25:08.795Z,101305.75
2022-10-05T07:27:51.772Z,101312.31
2022-10-05T07:30:24.561Z,101305.84
2022-10-05T07:33:02.350Z,101303.41
2022-10-05T07:36:05.399Z,101307.19
2022-10-05T07:38:37.705Z,101310.97
2022-10-05T07:41:31.509Z,101312.84
2022-10-05T07:44:13.067Z,101314.19
2022-10-05T07:46:54.712Z,101318.41
2022-10-05T07:49:41.532Z,101317.63
2022-10-05T07:52:34.630Z,101318.97
2022-10-05T07:55:17.929Z,101320.31
2022-10-05T07:58:05.267Z,101323.44
2022-10-05T08:00:57.115Z,101320.94
2022-10-05T08:03:38.326Z,101321.28
2022-10-05T08:06:14.017Z,101325.50
2022-10-05T08:09:09.813Z,101316.69
2022-10-05T08:11:51.459Z,101318.78
2022-10-05T08:14:26.048Z,101319.31
2022-10-05T08:17:00.244Z,101317.50
2022-10-05T08:19:39.709Z,101308.97
2022-10-05T08:22:24.830Z,101318.03
2022-10-05T08:25:03.530Z,101307.94
2022-10-05T08:27:41.156Z,101304.41
2022-10-05T08:30:15.695Z,101305.72
2022-10-05T08:32:53.886Z,101300.81
2022-10-05T08:35:38.623Z,101299.44
2022-10-05T08:38:16.678Z,101292.06
2022-10-05T08:41:05.039Z,101291.31
2022-10-05T08:43:49.651Z,101294.59
2022-10-05T08:46:42.503Z,101293.06
2022-10-05T08:49:49.505Z,101290.94
2022-10-05T08:52:40.700Z,101292.63
2022-10-05T08:55:34.634Z,101293.91
2022-10-05T08:58:39.171Z,101290.78
2022-10-05T09:01:22.869Z,101286.78
2022-10-05T09:03:58.195Z,101282.94
2022-10-05T09:06:53.456Z,101291.63
2022-10-05T09:09:32.086Z,101283.59
2022-10-05T09:12:14.944Z,101289.81
2022-10-05T09:15:20.561Z,101288.25
2022-10-05T09:18:02.911Z,101287.03
2022-10-05T09:20:43.481Z,101286.09
2022-10-05T09:23:36.018Z,101277.88
2022-10-05T09:26:08.917Z,101284.84
2022-10-05T09:28:47.390Z,101281.25
2022-10-05T09:31:42.812Z,101293.53
2022-10-05T09:34:33.342Z,101281.75
2022-10-05T09:37:17.496Z,101282.34
2022-10-05T09:40:02.437Z,101283.94
2022-10-05T09:42:44.452Z,101283.75
2022-10-05T09:45:36.252Z,101278.16
2022-10-05T09:48:25.891Z,101271.75
2022-10-05T09:51:01.213Z,101276.44
2022-10-05T09:53:52.366Z,101276.38
2022-10-05T09:59:10.953Z,101261.34
2022-10-05T10:01:43.349Z,101258.97
2022-10-05T10:04:25.073Z,101258.63
2022-10-05T10:07:03.541Z,101249.75
2022-10-05T10:09:51.142Z,101251.63
2022-10-05T10:12:29.404Z,101250.59
2022-10-05T10:15:20.202Z,101248.53
2022-10-05T10:18:14.775Z,101241.19
2022-10-05T10:20:47.567Z,101242.28
2022-10-05T10:23:49.793Z,101243.97
2022-10-05T10:26:26.018Z,101240.69
2022-10-05T10:29:05.371Z,101236.53
2022-10-05T10:31:56.578Z,101237.34
2022-10-05T10:34:49.787Z,101232.47
2022-10-05T10:38:05.618Z,101224.66
2022-10-05T10:40:44.596Z,101233.44
2022-10-05T10:43:17.281Z,101223.69
2022-10-05T10:45:56.676Z,101226.69
2022-10-05T10:48:29.843Z,101233.31
2022-10-05T10:51:18.475Z,101223.84
2022-10-05T10:53:53.965Z,101216.38
2022-10-05T10:56:36.290Z,101213.84
2022-10-05T10:59:35.288Z,101211.78
2022-10-05T11:02:07.769Z,101207.94
2022-10-05T11:04:58.516Z,101194.59
2022-10-05T11:07:43.240Z,101200.81
2022-10-05T11:10:34.928Z,101194.69
2022-10-05T11:13:27.431Z,101177.66
2022-10-05T11:19:02.826Z,101185.44
2022-10-05T11:21:53.538Z,101181.72
2022-10-05T11:24:26.034Z,101180.09
2022-10-05T11:27:08.249Z,101182.59
2022-10-05T11:29:55.268Z,101180.78
2022-10-05T11:32:48.570Z,101169.78
2022-10-05T11:35:34.187Z,101167.03
2022-10-05T11:38:31.460Z,101167.78
2022-10-05T11:41:17.530Z,101166.94
2022-10-05T11:44:06.159Z,101159.00
2022-10-05T11:46:42.040Z,101167.38
2022-10-05T11:49:14.376Z,101145.06
2022-10-05T11:51:50.062Z,101136.94
2022-10-05T11:54:38.306Z,101158.13
2022-10-05T11:57:24.427Z,101139.91
2022-10-05T12:00:01.191Z,101144.03
2022-10-05T12:02:53.183Z,101141.97
2022-10-05T12:05:32.981Z,101125.25
2022-10-05T12:08:23.875Z,101120.38
2022-10-05T12:11:08.110Z,101121.59
2022-10-05T12:13:46.062Z,101108.19
2022-10-05T12:16:26.989Z,101102.88
2022-10-05T12:19:19.604Z,101110.69
2022-10-05T12:21:55.776Z,101093.28
2022-10-05T12:24:38.992Z,101090.41
2022-10-05T12:27:16.309Z,101090.59
2022-10-05T12:30:07.538Z,101088.34
2022-10-05T12:32:55.883Z,101089.94
2022-10-05T12:35:49.956Z,101085.06
2022-10-05T12:38:26.938Z,101083.97
2022-10-05T12:41:00.249Z,101082.41
2022-10-05T12:43:32.923Z,101079.38
2022-10-05T12:46:08.374Z,101076.84
2022-10-05T12:48:49.198Z,101076.03
2022-10-05T12:51:30.699Z,101079.09
2022-10-05T12:54:03.210Z,101081.59
2022-10-05T12:56:52.637Z,101079.19
2022-10-05T12:59:45.751Z,101080.91
2022-10-05T13:02:18.249Z,101080.63
2022-10-05T13:05:04.386Z,101100.97
2022-10-05T13:08:00.798Z,101083.03
2022-10-05T13:10:51.427Z,101087.91
2022-10-05T13:13:39.460Z,101076.00
2022-10-05T13:16:18.658Z,101076.09
2022-10-05T13:18:58.912Z,101068.06
2022-10-05T13:21:48.832Z,101070.19
2022-10-05T13:24:47.566Z,101068.59
2022-10-05T13:27:19.840Z,101073.78
2022-10-05T13:30:02.127Z,101062.88
2022-10-05T13:32:36.713Z,101064.97
2022-10-05T13:35:30.434Z,101060.06
2022-10-05T13:38:05.950Z,101067.28
2022-10-05T13:40:58.556Z,101062.72
2022-10-05T13:43:39.357Z,101071.84
2022-10-05T13:46:21.400Z,101073.13
2022-10-05T13:49:05.920Z,101077.88
2022-10-05T13:51:41.457Z,101080.75
2022-10-05T13:54:13.720Z,101083.19
2022-10-05T13:56:51.447Z,101086.66
2022-10-05T13:59:33.135Z,101084.56
2022-10-05T14:02:08.673Z,101086.69
2022-10-05T14:04:51.978Z,101093.25
2022-10-05T14:07:30.341Z,101089.78
2022-10-05T14:10:04.647Z,101077.53
2022-10-05T14:12:40.062Z,101092.09
2022-10-05T14:15:19.821Z,101092.47
2022-10-05T14:17:52.675Z,101085.50
2022-10-05T14:20:26.755Z,101083.56
2022-10-05T14:23:05.343Z,101079.34
2022-10-05T14:25:50.166Z,101080.75
2022-10-05T14:28:29.409Z,101087.81
2022-10-05T14:31:03.248Z,101087.00
2022-10-05T14:33:35.534Z,101095.50
2022-10-05T14:36:16.353Z,101105.28
2022-10-05T14:39:00.678Z,101091.19
2022-10-05T14:41:37.222Z,101095.25
2022-10-05T14:44:09.551Z,101086.78
2022-10-05T14:46:55.976Z,101103.00
2022-10-05T14:49:30.014Z,101105.53
2022-10-05T14:52:23.499Z,101102.81
2022-10-05T14:55:00.252Z,101115.66
2022-10-05T14:57:48.264Z,101134.59
2022-10-05T15:00:20.723Z,101145.31
2022-10-05T15:03:08.060Z,101175.47
2022-10-05T15:05:52.262Z,101156.59
2022-10-05T15:08:31.197Z,101169.06
2022-10-05T15:11:06.356Z,101178.69
2022-10-05T15:13:42.074Z,101184.31
2022-10-05T15:16:26.230Z,101199.81
2022-10-05T15:19:04.753Z,101199.50
2022-10-05T15:21:42.300Z,101206.00
2022-10-05T15:24:20.339Z,101204.88
2022-10-05T15:26:54.412Z,101215.38
2022-10-05T15:29:49.852Z,101210.44
2022-10-05T15:32:47.944Z,101213.88
2022-10-05T15:35:26.337Z,101209.69
2022-10-05T15:38:12.407Z,101208.44
2022-10-05T15:40:47.761Z,101208.25
2022-10-05T15:43:22.397Z,101212.16
2022-10-05T15:46:12.412Z,101208.59
2022-10-05T15:48:52.285Z,101186.75
2022-10-05T15:51:27.297Z,101194.19
2022-10-05T15:54:25.001Z,101203.16
2022-10-05T15:56:59.270Z,101201.78
2022-10-05T15:59:37.490Z,101214.34
2022-10-05T16:02:19.553Z,101206.25
2022-10-05T16:04:51.884Z,101207.81
2022-10-05T16:07:46.596Z,101196.66
2022-10-05T16:10:23.378Z,101212.75
2022-10-05T16:13:14.232Z,101208.09
2022-10-05T16:15:55.168Z,101212.28
2022-10-05T16:18:47.100Z,101206.88
2022-10-05T16:21:19.448Z,101213.22
2022-10-05T16:23:54.804Z,101213.69
2022-10-05T16:26:38.488Z,101216.78
2022-10-05T16:29:19.793Z,101223.44
2022-10-05T16:32:10.925Z,101236.00
2022-10-05T16:34:46.284Z,101244.38
2022-10-05T16:37:28.115Z,101249.00
2022-10-05T16:40:11.413Z,101237.25
2022-10-05T16:42:50.008Z,101239.06
2022-10-05T16:45:45.499Z,101228.72
2022-10-05T16:48:29.552Z,101230.41
2022-10-05T16:51:07.611Z,101236.13
2022-10-05T16:53:39.863Z,101236.00
2022-10-05T16:56:15.002Z,101241.91
2022-10-05T16:58:53.811Z,101248.41
2022-10-05T17:01:43.252Z,101251.19
2022-10-05T17:04:24.765Z,101247.59
2022-10-05T17:06:57.010Z,101256.78
2022-10-05T17:09:42.776Z,101254.59
2022-10-05T17:12:15.150Z,101262.19
2022-10-05T17:15:24.393Z,101261.41
2022-10-05T17:18:02.673Z,101263.75
2022-10-05T17:20:45.331Z,101264.38
2022-10-05T17:23:30.205Z,101268.53
2022-10-05T17:26:29.137Z,101257.38
2022-10-05T17:29:16.529Z,101269.16
2022-10-05T17:32:02.428Z,101271.03
2022-10-05T17:34:36.407Z,101269.34
2022-10-05T17:37:16.164Z,101267.63
2022-10-05T17:39:50.323Z,101262.94
2022-10-05T17:42:25.629Z,101260.47
2022-10-05T17:44:59.183Z,101282.47
2022-10-05T17:47:50.471Z,101286.19
2022-10-05T17:50:56.923Z,101283.84
2022-10-05T17:53:55.396Z,101279.06
2022-10-05T17:56:28.448Z,101293.34
2022-10-05T17:59:03.083Z,101296.41
2022-10-05T18:01:39.784Z,101295.53
2022-10-05T18:04:12.053Z,101300.16
2022-10-05T18:06:48.071Z,101302.69
2022-10-05T18:09:23.450Z,101300.50
2022-10-05T18:12:15.516Z,101298.97
2022-10-05T18:14:50.856Z,101295.56
2022-10-05T18:17:46.021Z,101302.09
2022-10-05T18:20:27.027Z,101308.59
2022-10-05T18:23:09.564Z,101308.94
2022-10-05T18:26:01.385Z,101305.66
2022-10-05T18:28:52.679Z,101305.06
2022-10-05T18:31:35.940Z,101302.41
2022-10-05T18:34:29.783Z,101296.84
2022-10-05T18:37:21.479Z,101304.00
2022-10-05T18:40:02.992Z,101312.81
2022-10-05T18:42:41.358Z,101311.56
2022-10-05T18:45:52.317Z,101312.03
2022-10-05T18:48:31.056Z,101316.81
2022-10-05T18:51:06.348Z,101314.22
2022-10-05T18:53:41.628Z,101322.28
2022-10-05T18:56:33.812Z,101314.22
2022-10-05T18:59:09.255Z,101307.06
2022-10-05T19:02:06.159Z,101321.50
2022-10-05T19:04:54.594Z,101330.31
2022-10-05T19:07:52.876Z,101334.84
2022-10-05T19:10:40.015Z,101333.75
2022-10-05T19:13:35.340Z,101338.88
2022-10-05T19:16:13.748Z,101345.25
2022-10-05T19:19:04.907Z,101358.88
2022-10-05T19:21:58.782Z,101355.75
2022-10-05T19:24:44.302Z,101349.88
2022-10-05T19:27:27.395Z,101347.59
2022-10-05T19:30:18.612Z,101348.19
2022-10-05T19:33:00.181Z,101355.03
2022-10-05T19:35:51.511Z,101354.25
2022-10-05T19:38:34.037Z,101351.03
2022-10-05T19:41:31.059Z,101353.34
2022-10-05T19:44:26.755Z,101356.59
2022-10-05T19:47:02.335Z,101361.88
2022-10-05T19:49:36.482Z,101354.59
2022-10-05T19:52:11.288Z,101368.09
2022-10-05T19:55:01.707Z,101384.59
2022-10-05T19:57:36.593Z,101403.94
2022-10-05T20:00:36.858Z,101437.94
2022-10-05T20:03:12.846Z,101453.53
2022-10-05T20:06:09.576Z,101442.88
2022-10-05T20:08:51.811Z,101437.47
2022-10-05T20:11:27.630Z,101441.66
2022-10-05T20:14:10.264Z,101432.84
2022-10-05T20:19:55.992Z,101445.38
2022-10-05T20:22:40.816Z,101453.28
2022-10-05T20:25:18.921Z,101463.53
2022-10-05T20:27:52.650Z,101470.44
2022-10-05T20:30:28.885Z,101472.72
2022-10-05T20:33:01.774Z,101463.13
2022-10-05T20:35:34.047Z,101473.47
2022-10-05T20:38:06.354Z,101482.16
2022-10-05T20:40:39.899Z,101484.16
2022-10-05T20:43:12.504Z,101501.19
2022-10-05T20:45:44.994Z,101505.88
2022-10-05T20:48:19.847Z,101505.19
2022-10-05T20:50:52.100Z,101517.19
2022-10-05T20:53:24.400Z,101518.94
2022-10-05T20:55:59.723Z,101520.69
2022-10-05T20:58:32.052Z,101534.03
2022-10-05T21:01:23.173Z,101545.16
2022-10-05T21:03:55.820Z,101546.00
2022-10-05T21:06:28.616Z,101561.13
2022-10-05T21:09:00.964Z,101552.44
2022-10-05T21:11:33.258Z,101561.28
2022-10-05T21:14:07.156Z,101565.00
2022-10-05T21:16:41.123Z,101573.91
2022-10-05T21:19:14.067Z,101566.47
2022-10-05T21:21:47.661Z,101587.59
2022-10-05T21:24:19.963Z,101597.06
2022-10-05T21:26:55.429Z,101612.59
2022-10-05T21:29:28.245Z,101633.38
2022-10-05T21:32:00.586Z,101659.72
2022-10-05T21:34:32.951Z,101645.59
2022-10-05T21:37:05.271Z,101661.97
2022-10-05T21:39:37.650Z,101657.81
2022-10-05T21:42:09.924Z,101666.81
2022-10-05T21:44:42.192Z,101663.97
2022-10-05T21:47:14.462Z,101666.13
2022-10-05T21:49:46.726Z,101673.84
2022-10-05T21:52:19.380Z,101673.22
2022-10-05T21:54:51.814Z,101678.88
2022-10-05T21:57:26.678Z,101673.91
2022-10-05T21:59:59.189Z,101671.66
2022-10-05T22:02:37.408Z,101670.97
2022-10-05T22:05:09.750Z,101686.03
2022-10-05T22:07:42.036Z,101679.34
2022-10-05T22:10:14.457Z,101679.78
2022-10-05T22:12:49.231Z,101693.25
2022-10-05T22:15:21.832Z,101703.91
2022-10-05T22:17:54.237Z,101703.91
2022-10-05T22:20:26.813Z,101712.19
2022-10-05T22:22:59.037Z,101716.94
2022-10-05T22:25:33.794Z,101716.13
2022-10-05T22:28:09.021Z,101723.50
2022-10-05T22:30:43.724Z,101732.06
2022-10-05T22:33:16.217Z,101729.66
2022-10-05T22:35:48.553Z,101739.50
2022-10-05T22:38:20.911Z,101748.13
2022-10-05T22:40:53.191Z,101749.00
2022-10-05T22:43:28.895Z,101765.91
2022-10-05T22:46:06.860Z,101767.53
2022-10-05T22:48:39.418Z,101772.31
2022-10-05T22:51:11.991Z,101776.34
2022-10-05T22:53:44.499Z,101770.91
2022-10-05T22:56:16.794Z,101783.28
2022-10-05T22:58:50.949Z,101780.50
2022-10-05T23:01:23.230Z,101791.97
2022-10-05T23:03:57.129Z,101796.75
2022-10-05T23:06:31.656Z,101799.88
2022-10-05T23:09:04.035Z,101813.72
2022-10-05T23:11:36.285Z,101815.97
2022-10-05T23:14:08.568Z,101813.19
2022-10-05T23:16:40.919Z,101818.75
2022-10-05T23:19:13.645Z,101817.16
2022-10-05T23:21:46.092Z,101823.06
2022-10-05T23:24:18.396Z,101825.53
2022-10-05T23:26:50.644Z,101831.47
2022-10-05T23:29:23.302Z,101821.16
2022-10-05T23:31:55.578Z,101843.94
2022-10-05T23:34:29.298Z,101850.91
2022-10-05T23:37:01.776Z,101865.88
2022-10-05T23:39:34.053Z,101858.63
2022-10-05T23:42:06.409Z,101880.88
2022-10-05T23:44:38.730Z,101871.06
2022-10-05T23:47:10.993Z,101886.59
2022-10-05T23:49:46.271Z,101880.25
2022-10-05T23:52:18.544Z,101885.09
2022-10-05T23:54:50.825Z,101902.47
2022-10-05T23:57:23.103Z,101905.63
2022-10-05T23:59:56.331Z,101921.88
